Time;durP1;ratioP1;P1;durP2;ratioP2;P2;SDS_P1;SDS_P2;PMS_P1;PMS_P2;Temp;Humidity;BMP_temperature;BMP_pressure;BME280_temperature;BME280_humidity;BME280_pressure;Samples;Min_cycle;Max_cycle;Signal;HPM_P1;HPM_P2
2023/01/29 00:02:14;;;;;;;12.40;9.87;;;;;;;;;;5012955;28;20231;-64
2023/01/29 00:04:39;;;;;;;11.60;9.90;;;;;;;;;;5013494;28;20216;-64
2023/01/29 00:07:05;;;;;;;10.93;9.33;;;;;;;;;;5012341;28;20219;-63
2023/01/29 00:09:31;;;;;;;11.63;9.70;;;;;;;;;;5012928;28;20240;-63
2023/01/29 00:11:56;;;;;;;11.13;9.40;;;;;;;;;;5013147;28;20232;-63
2023/01/29 00:14:21;;;;;;;11.33;9.90;;;;;;;;;;5020688;28;20216;-63
2023/01/29 00:16:46;;;;;;;12.50;10.40;;;;;;;;;;5032940;28;20251;-63
2023/01/29 00:19:12;;;;;;;11.87;10.40;;;;;;;;;;5031705;28;20683;-63
2023/01/29 00:21:37;;;;;;;11.63;10.20;;;;;;;;;;5032194;28;20243;-63
2023/01/29 00:24:02;;;;;;;11.97;10.50;;;;;;;;;;5032292;28;20238;-63
2023/01/29 00:26:28;;;;;;;14.10;11.03;;;;;;;;;;5032652;28;20356;-63
2023/01/29 00:28:54;;;;;;;13.00;10.80;;;;;;;;;;5031791;28;20232;-63
2023/01/29 00:31:20;;;;;;;11.37;10.07;;;;;;;;;;5032289;28;20216;-63
2023/01/29 00:33:45;;;;;;;13.67;10.60;;;;;;;;;;5032565;28;20211;-63
2023/01/29 00:36:11;;;;;;;12.47;9.90;;;;;;;;;;5013632;28;20239;-63
2023/01/29 00:38:37;;;;;;;11.57;10.27;;;;;;;;;;5032675;28;20231;-63
2023/01/29 00:46:33;;;;;;;12.07;9.83;;;;;;;;;;5012348;28;20243;-63
2023/01/29 00:48:58;;;;;;;12.17;9.50;;;;;;;;;;5012286;28;20221;-63
2023/01/29 00:51:24;;;;;;;11.70;10.50;;;;;;;;;;5028095;28;20261;-63
2023/01/29 00:53:49;;;;;;;12.03;10.23;;;;;;;;;;5032164;28;20200;-63
2023/01/29 00:56:14;;;;;;;12.50;10.23;;;;;;;;;;5030857;28;20590;-63
2023/01/29 00:58:40;;;;;;;11.60;9.90;;;;;;;;;;5032527;28;20211;-63
2023/01/29 01:01:05;;;;;;;11.73;10.53;;;;;;;;;;5031713;28;20652;-63
2023/01/29 01:03:33;;;;;;;12.40;10.73;;;;;;;;;;5031527;28;20212;-63
2023/01/29 01:06:05;;;;;;;11.53;10.33;;;;;;;;;;5028894;28;20232;-64
2023/01/29 01:11:14;;;;;;;11.93;10.50;;;;;;;;;;4991603;28;20212;-64
2023/01/29 01:13:39;;;;;;;13.60;10.50;;;;;;;;;;4992733;28;20580;-64
2023/01/29 01:16:09;;;;;;;11.60;10.17;;;;;;;;;;4989538;28;20252;-64
2023/01/29 01:18:35;;;;;;;11.97;10.10;;;;;;;;;;4983734;28;20512;-64
2023/01/29 01:21:00;;;;;;;11.83;10.60;;;;;;;;;;4965207;28;20292;-64
2023/01/29 01:23:26;;;;;;;11.43;10.23;;;;;;;;;;4982517;28;20304;-64
2023/01/29 01:25:52;;;;;;;13.17;11.37;;;;;;;;;;4954881;28;20263;-64
2023/01/29 01:28:17;;;;;;;11.60;10.40;;;;;;;;;;4974454;28;20228;-64
2023/01/29 01:30:42;;;;;;;13.27;10.20;;;;;;;;;;4976620;28;20233;-64
2023/01/29 01:33:07;;;;;;;12.13;10.80;;;;;;;;;;4986268;28;20586;-64
2023/01/29 01:35:33;;;;;;;12.63;10.70;;;;;;;;;;4986820;28;20213;-64
2023/01/29 01:37:58;;;;;;;11.83;10.07;;;;;;;;;;4986323;28;20684;-64
2023/01/29 01:40:24;;;;;;;12.73;10.37;;;;;;;;;;4985884;28;20449;-64
2023/01/29 01:42:49;;;;;;;12.30;10.33;;;;;;;;;;4969379;28;20740;-65
2023/01/29 01:45:23;;;;;;;12.73;11.07;;;;;;;;;;4985892;28;20255;-63
2023/01/29 01:47:50;;;;;;;12.80;10.90;;;;;;;;;;5000590;28;20235;-65
2023/01/29 01:50:20;;;;;;;12.50;10.87;;;;;;;;;;4977654;28;20208;-66
2023/01/29 01:52:47;;;;;;;11.83;10.50;;;;;;;;;;4997033;28;20204;-65
2023/01/29 01:55:13;;;;;;;12.53;10.63;;;;;;;;;;4985919;28;20298;-65
2023/01/29 01:57:38;;;;;;;12.53;10.83;;;;;;;;;;4988074;28;20304;-66
2023/01/29 02:00:08;;;;;;;12.97;10.43;;;;;;;;;;5004636;28;20619;-65
2023/01/29 02:10:45;;;;;;;12.77;11.40;;;;;;;;;;4997478;28;20218;-66
2023/01/29 02:13:11;;;;;;;14.37;11.20;;;;;;;;;;5015763;28;20423;-66
2023/01/29 02:15:40;;;;;;;14.57;11.43;;;;;;;;;;4999527;28;20286;-66
2023/01/29 02:18:06;;;;;;;11.77;10.43;;;;;;;;;;5023686;28;20228;-65
2023/01/29 02:20:31;;;;;;;13.27;11.27;;;;;;;;;;5024312;28;20227;-65
2023/01/29 02:23:01;;;;;;;16.47;11.80;;;;;;;;;;5007668;28;20215;-65
2023/01/29 02:25:43;;;;;;;13.30;11.60;;;;;;;;;;5006661;28;20605;-65
2023/01/29 02:28:08;;;;;;;13.53;11.53;;;;;;;;;;5023747;28;20212;-65
2023/01/29 02:30:35;;;;;;;13.93;11.90;;;;;;;;;;5024863;28;20583;-66
2023/01/29 02:33:06;;;;;;;14.27;11.73;;;;;;;;;;5001386;28;20219;-65
2023/01/29 02:35:39;;;;;;;14.03;11.23;;;;;;;;;;4998377;28;20979;-66
2023/01/29 02:38:12;;;;;;;13.47;11.37;;;;;;;;;;4997960;28;20656;-66
2023/01/29 02:40:39;;;;;;;13.83;11.83;;;;;;;;;;5022321;28;20799;-66
2023/01/29 02:43:06;;;;;;;13.20;11.80;;;;;;;;;;5006866;28;20306;-66
2023/01/29 02:45:32;;;;;;;13.67;11.83;;;;;;;;;;5006626;28;20753;-65
2023/01/29 02:47:58;;;;;;;14.83;11.57;;;;;;;;;;5006517;28;20310;-66
2023/01/29 02:50:30;;;;;;;15.10;12.07;;;;;;;;;;5016456;28;20220;-66
2023/01/29 02:53:11;;;;;;;13.90;12.40;;;;;;;;;;4987786;28;20259;-66
2023/01/29 02:55:40;;;;;;;13.60;11.73;;;;;;;;;;5000217;28;20257;-66
2023/01/29 02:58:08;;;;;;;14.60;11.63;;;;;;;;;;5015910;28;20263;-66
2023/01/29 03:00:35;;;;;;;13.37;11.80;;;;;;;;;;5015592;28;20203;-65
2023/01/29 03:03:00;;;;;;;14.30;12.67;;;;;;;;;;5003388;28;20274;-65
2023/01/29 03:05:27;;;;;;;14.30;12.40;;;;;;;;;;5024609;28;20239;-66
2023/01/29 03:07:54;;;;;;;14.50;12.20;;;;;;;;;;5005391;28;20224;-65
2023/01/29 03:10:20;;;;;;;14.10;11.70;;;;;;;;;;5003582;28;20224;-66
2023/01/29 03:12:47;;;;;;;14.03;11.83;;;;;;;;;;4987178;28;20726;-65
2023/01/29 03:15:15;;;;;;;14.10;11.90;;;;;;;;;;4986869;28;20220;-66
2023/01/29 03:17:46;;;;;;;14.47;11.80;;;;;;;;;;5001787;28;20251;-65
2023/01/29 03:20:13;;;;;;;14.20;11.93;;;;;;;;;;4997318;28;20303;-66
2023/01/29 03:22:39;;;;;;;15.33;12.17;;;;;;;;;;5015391;28;20434;-65
2023/01/29 03:33:18;;;;;;;14.63;11.77;;;;;;;;;;5003038;28;20223;-66
2023/01/29 03:35:47;;;;;;;14.53;11.60;;;;;;;;;;4986845;28;20213;-65
2023/01/29 03:38:12;;;;;;;14.07;11.93;;;;;;;;;;5004410;28;20913;-66
2023/01/29 03:40:41;;;;;;;13.60;11.90;;;;;;;;;;5001795;28;20316;-66
2023/01/29 03:43:09;;;;;;;13.30;11.50;;;;;;;;;;4975427;28;20208;-66
2023/01/29 03:45:43;;;;;;;15.27;11.67;;;;;;;;;;4977453;28;20221;-65
2023/01/29 03:48:15;;;;;;;13.83;11.73;;;;;;;;;;5000364;28;20219;-66
2023/01/29 03:50:46;;;;;;;14.10;11.70;;;;;;;;;;4980388;28;20251;-66
2023/01/29 03:53:13;;;;;;;14.67;12.43;;;;;;;;;;5002963;28;20247;-66
2023/01/29 03:55:38;;;;;;;14.93;11.83;;;;;;;;;;5023347;28;20223;-65
2023/01/29 03:58:05;;;;;;;15.10;12.07;;;;;;;;;;5021797;28;20234;-65
2023/01/29 04:00:33;;;;;;;14.00;11.83;;;;;;;;;;5021413;28;20307;-66
2023/01/29 04:03:02;;;;;;;14.93;11.60;;;;;;;;;;5000045;28;20286;-65
2023/01/29 04:05:28;;;;;;;15.63;13.03;;;;;;;;;;4977195;28;20255;-65
2023/01/29 04:07:56;;;;;;;14.37;12.27;;;;;;;;;;4977581;28;20743;-65
2023/01/29 04:10:22;;;;;;;14.40;12.23;;;;;;;;;;5000456;28;20617;-65
2023/01/29 04:12:49;;;;;;;15.60;12.03;;;;;;;;;;5004279;28;20223;-65
2023/01/29 04:15:15;;;;;;;15.80;12.60;;;;;;;;;;5004832;28;20302;-65
2023/01/29 04:17:41;;;;;;;15.83;12.40;;;;;;;;;;5005079;28;20235;-65
2023/01/29 04:20:07;;;;;;;16.60;12.77;;;;;;;;;;5021904;28;20246;-65
2023/01/29 04:22:33;;;;;;;14.50;11.50;;;;;;;;;;5005030;28;20216;-65
2023/01/29 04:25:01;;;;;;;14.67;12.17;;;;;;;;;;5013967;28;20227;-66
2023/01/29 04:27:28;;;;;;;13.70;11.70;;;;;;;;;;4992567;28;20625;-66
2023/01/29 04:29:59;;;;;;;14.87;11.73;;;;;;;;;;5010057;28;20618;-66
2023/01/29 04:32:31;;;;;;;14.97;11.97;;;;;;;;;;5016496;28;20220;-65
2023/01/29 04:35:08;;;;;;;14.53;11.97;;;;;;;;;;5022349;28;20268;-66
2023/01/29 04:37:33;;;;;;;15.63;11.83;;;;;;;;;;5005064;28;20622;-65
2023/01/29 04:40:03;;;;;;;18.03;12.60;;;;;;;;;;5022398;28;20238;-66
2023/01/29 04:42:29;;;;;;;15.30;12.57;;;;;;;;;;5001513;28;20216;-66
2023/01/29 04:45:00;;;;;;;14.37;12.13;;;;;;;;;;4985030;28;20219;-66
2023/01/29 04:47:29;;;;;;;16.53;12.53;;;;;;;;;;5007936;28;20635;-65
2023/01/29 04:50:00;;;;;;;15.70;12.03;;;;;;;;;;5016826;28;20212;-65
2023/01/29 04:52:37;;;;;;;15.93;12.57;;;;;;;;;;5012368;28;20219;-65
2023/01/29 04:55:05;;;;;;;16.00;13.03;;;;;;;;;;5011006;28;20220;-65
2023/01/29 04:57:42;;;;;;;16.53;12.57;;;;;;;;;;5012150;28;20236;-65
2023/01/29 05:00:16;;;;;;;14.83;12.43;;;;;;;;;;5012028;28;20258;-65
2023/01/29 05:02:42;;;;;;;14.47;11.33;;;;;;;;;;4993960;28;20262;-65
2023/01/29 05:05:07;;;;;;;15.27;12.80;;;;;;;;;;5011802;28;20228;-65
2023/01/29 05:07:33;;;;;;;15.63;12.53;;;;;;;;;;4982406;28;20209;-65
2023/01/29 05:09:58;;;;;;;17.87;12.93;;;;;;;;;;4989904;28;20376;-65
2023/01/29 05:12:24;;;;;;;16.27;13.10;;;;;;;;;;4990904;28;20228;-65
2023/01/29 05:14:49;;;;;;;15.43;12.97;;;;;;;;;;5004209;28;20212;-65
2023/01/29 05:17:15;;;;;;;16.77;13.13;;;;;;;;;;5009639;28;20233;-65
2023/01/29 05:19:40;;;;;;;14.83;12.50;;;;;;;;;;5011121;28;20795;-65
2023/01/29 05:22:06;;;;;;;15.53;13.27;;;;;;;;;;5010716;28;20217;-65
2023/01/29 05:24:31;;;;;;;14.77;12.20;;;;;;;;;;5011265;28;20215;-66
2023/01/29 05:29:41;;;;;;;17.30;13.37;;;;;;;;;;5030907;28;21041;-66
2023/01/29 05:32:07;;;;;;;15.63;13.37;;;;;;;;;;5030160;28;20302;-65
2023/01/29 05:34:33;;;;;;;16.93;13.37;;;;;;;;;;5032071;28;20744;-66
2023/01/29 05:36:58;;;;;;;16.13;13.10;;;;;;;;;;5031343;28;20223;-66
2023/01/29 05:39:23;;;;;;;16.40;13.07;;;;;;;;;;5031364;28;20622;-66
2023/01/29 05:41:49;;;;;;;15.27;13.00;;;;;;;;;;5031229;28;20728;-65
2023/01/29 05:44:14;;;;;;;15.93;13.60;;;;;;;;;;5026987;28;20243;-65
2023/01/29 05:46:39;;;;;;;15.13;12.73;;;;;;;;;;5027764;28;20196;-66
2023/01/29 05:49:04;;;;;;;15.17;12.83;;;;;;;;;;5011955;28;20240;-65
2023/01/29 05:51:30;;;;;;;14.90;12.80;;;;;;;;;;5024960;28;20243;-66
2023/01/29 05:53:55;;;;;;;16.20;13.23;;;;;;;;;;5022593;28;20300;-65
2023/01/29 05:56:20;;;;;;;16.03;13.27;;;;;;;;;;5031255;28;20242;-65
2023/01/29 05:58:46;;;;;;;15.23;12.67;;;;;;;;;;5026300;28;20215;-65
2023/01/29 06:01:12;;;;;;;15.40;13.03;;;;;;;;;;5031449;28;20243;-65
2023/01/29 06:03:37;;;;;;;14.73;12.00;;;;;;;;;;5031631;28;20647;-66
2023/01/29 06:06:03;;;;;;;15.47;12.90;;;;;;;;;;5027017;28;20239;-65
2023/01/29 06:08:28;;;;;;;15.07;12.60;;;;;;;;;;5005019;28;20259;-65
2023/01/29 06:10:53;;;;;;;15.43;12.93;;;;;;;;;;4992551;28;20213;-65
2023/01/29 06:13:18;;;;;;;16.47;13.53;;;;;;;;;;4991291;28;20561;-66
2023/01/29 06:15:44;;;;;;;15.63;13.23;;;;;;;;;;5012224;28;20215;-65
2023/01/29 06:18:09;;;;;;;16.27;13.97;;;;;;;;;;5014847;28;20311;-65
2023/01/29 06:20:34;;;;;;;14.80;13.10;;;;;;;;;;5014530;28;20208;-65
2023/01/29 06:22:59;;;;;;;17.13;14.03;;;;;;;;;;4997709;28;20702;-66
2023/01/29 06:25:25;;;;;;;15.87;13.60;;;;;;;;;;5014494;28;20220;-65
2023/01/29 06:27:50;;;;;;;15.53;13.50;;;;;;;;;;5014725;28;20303;-65
2023/01/29 06:30:15;;;;;;;16.63;13.60;;;;;;;;;;5014694;28;20261;-65
2023/01/29 06:32:41;;;;;;;16.87;13.43;;;;;;;;;;5014601;28;20236;-66
2023/01/29 06:35:08;;;;;;;16.03;13.63;;;;;;;;;;5014462;28;20317;-66
2023/01/29 06:37:33;;;;;;;14.93;13.03;;;;;;;;;;5015164;28;20216;-66
2023/01/29 06:39:59;;;;;;;16.60;13.53;;;;;;;;;;5014179;28;20332;-65
2023/01/29 06:42:26;;;;;;;15.50;13.27;;;;;;;;;;5014435;28;20208;-65
2023/01/29 06:44:52;;;;;;;16.70;13.63;;;;;;;;;;5014795;28;20209;-65
2023/01/29 06:47:18;;;;;;;17.17;14.30;;;;;;;;;;5013690;28;20216;-65
2023/01/29 06:49:43;;;;;;;17.47;13.90;;;;;;;;;;5013546;28;20208;-67
2023/01/29 06:52:08;;;;;;;17.30;14.10;;;;;;;;;;4984297;28;20563;-66
2023/01/29 06:54:34;;;;;;;17.20;13.83;;;;;;;;;;4973984;28;20772;-67
2023/01/29 06:56:59;;;;;;;17.30;14.33;;;;;;;;;;4977925;28;20225;-66
2023/01/29 06:59:24;;;;;;;15.60;13.07;;;;;;;;;;4979100;28;20221;-66
2023/01/29 07:01:50;;;;;;;16.80;13.77;;;;;;;;;;4986060;28;20240;-66
2023/01/29 07:04:15;;;;;;;15.97;13.50;;;;;;;;;;4967435;28;20225;-67
2023/01/29 07:06:40;;;;;;;17.30;13.90;;;;;;;;;;4987211;28;20248;-66
2023/01/29 07:09:05;;;;;;;19.07;14.40;;;;;;;;;;4996859;28;20287;-66
2023/01/29 07:11:33;;;;;;;16.77;13.97;;;;;;;;;;5004586;28;20322;-66
2023/01/29 07:13:58;;;;;;;17.37;13.90;;;;;;;;;;5005973;28;20526;-66
2023/01/29 07:16:25;;;;;;;16.63;13.77;;;;;;;;;;4997214;28;20697;-66
2023/01/29 07:18:50;;;;;;;16.27;13.63;;;;;;;;;;4997080;28;20263;-67
2023/01/29 07:21:15;;;;;;;17.17;14.13;;;;;;;;;;4995850;28;20205;-67
2023/01/29 07:23:41;;;;;;;16.03;13.40;;;;;;;;;;5003150;28;20302;-67
2023/01/29 07:26:06;;;;;;;17.30;14.00;;;;;;;;;;5004066;28;20268;-66
2023/01/29 07:28:34;;;;;;;17.47;14.20;;;;;;;;;;5004593;28;20310;-67
2023/01/29 07:31:00;;;;;;;16.07;13.17;;;;;;;;;;5018421;28;21378;-67
2023/01/29 07:33:25;;;;;;;17.67;13.80;;;;;;;;;;5004950;28;20706;-67
2023/01/29 07:35:51;;;;;;;17.23;14.10;;;;;;;;;;5005505;28;20224;-67
2023/01/29 07:38:16;;;;;;;15.90;13.33;;;;;;;;;;4982296;28;20237;-66
2023/01/29 07:40:41;;;;;;;17.23;14.30;;;;;;;;;;4978826;28;20979;-66
2023/01/29 07:43:07;;;;;;;15.70;12.47;;;;;;;;;;4994909;28;20298;-66
2023/01/29 07:45:32;;;;;;;17.50;14.20;;;;;;;;;;4982621;28;20220;-66
2023/01/29 07:47:58;;;;;;;17.57;13.70;;;;;;;;;;5004085;28;20252;-66
2023/01/29 07:50:23;;;;;;;16.57;14.20;;;;;;;;;;5002752;28;20242;-67
2023/01/29 07:52:49;;;;;;;17.67;13.73;;;;;;;;;;5003793;28;20672;-66
2023/01/29 07:55:14;;;;;;;16.83;13.50;;;;;;;;;;5003136;28;20657;-66
2023/01/29 07:57:40;;;;;;;16.10;13.20;;;;;;;;;;5002613;28;20228;-66
2023/01/29 08:00:05;;;;;;;16.30;12.80;;;;;;;;;;5001984;28;20279;-66
2023/01/29 08:02:31;;;;;;;16.77;13.40;;;;;;;;;;5011217;28;20216;-66
2023/01/29 08:04:56;;;;;;;16.47;13.30;;;;;;;;;;5012601;28;20224;-64
2023/01/29 08:07:21;;;;;;;17.57;15.00;;;;;;;;;;4998000;28;20542;-64
2023/01/29 08:09:47;;;;;;;17.57;14.23;;;;;;;;;;4993140;28;20692;-63
2023/01/29 08:12:12;;;;;;;17.10;15.40;;;;;;;;;;4991366;28;20452;-63
2023/01/29 08:14:37;;;;;;;17.20;15.40;;;;;;;;;;4985683;28;20427;-65
2023/01/29 08:17:02;;;;;;;15.87;13.83;;;;;;;;;;5012653;28;20591;-64
2023/01/29 08:19:28;;;;;;;16.13;13.70;;;;;;;;;;5012253;28;20216;-63
2023/01/29 08:21:53;;;;;;;16.43;13.83;;;;;;;;;;5013082;28;20251;-64
2023/01/29 08:24:18;;;;;;;15.60;13.20;;;;;;;;;;5012398;28;20223;-63
2023/01/29 08:26:43;;;;;;;17.10;13.50;;;;;;;;;;5025816;28;20215;-63
2023/01/29 08:29:09;;;;;;;15.63;13.03;;;;;;;;;;5032168;28;20678;-64
2023/01/29 08:31:35;;;;;;;16.10;13.27;;;;;;;;;;5032560;28;20211;-64
2023/01/29 08:34:00;;;;;;;16.07;13.40;;;;;;;;;;5014017;28;20705;-64
2023/01/29 08:36:25;;;;;;;14.90;12.77;;;;;;;;;;5032285;28;20211;-64
2023/01/29 08:38:51;;;;;;;16.23;13.20;;;;;;;;;;5031953;28;20261;-64
2023/01/29 08:41:16;;;;;;;17.80;14.50;;;;;;;;;;5031158;28;20579;-64
2023/01/29 08:43:41;;;;;;;17.93;14.37;;;;;;;;;;5032115;28;20706;-64
2023/01/29 08:46:07;;;;;;;15.70;12.97;;;;;;;;;;5031991;28;20247;-64
2023/01/29 08:48:32;;;;;;;17.23;12.57;;;;;;;;;;5031756;28;20550;-65
2023/01/29 08:50:58;;;;;;;16.77;13.23;;;;;;;;;;5019810;28;20267;-65
2023/01/29 08:53:23;;;;;;;16.83;12.63;;;;;;;;;;5010895;28;20671;-64
2023/01/29 08:55:49;;;;;;;15.37;12.70;;;;;;;;;;5012142;28;20209;-64
2023/01/29 08:58:14;;;;;;;15.13;12.77;;;;;;;;;;5016788;28;20220;-63
2023/01/29 09:00:39;;;;;;;17.07;13.03;;;;;;;;;;5015901;28;20220;-64
2023/01/29 09:03:06;;;;;;;15.93;12.90;;;;;;;;;;5024075;28;20204;-64
2023/01/29 09:05:32;;;;;;;18.27;14.07;;;;;;;;;;5024447;28;20265;-64
2023/01/29 09:07:57;;;;;;;15.33;12.60;;;;;;;;;;4992363;28;20288;-65
2023/01/29 09:10:22;;;;;;;17.50;13.00;;;;;;;;;;5006823;28;20212;-65
2023/01/29 09:12:48;;;;;;;16.17;13.60;;;;;;;;;;5003356;28;20300;-65
2023/01/29 09:15:13;;;;;;;15.07;12.57;;;;;;;;;;5011227;28;20212;-64
2023/01/29 09:17:39;;;;;;;15.93;13.00;;;;;;;;;;5012155;28;20220;-65
2023/01/29 09:20:05;;;;;;;15.57;12.67;;;;;;;;;;5011892;28;20278;-64
2023/01/29 09:22:30;;;;;;;18.83;12.47;;;;;;;;;;5011608;28;20601;-65
2023/01/29 09:24:56;;;;;;;15.13;12.93;;;;;;;;;;5012529;28;20741;-65
2023/01/29 09:27:21;;;;;;;18.20;13.47;;;;;;;;;;5011794;28;20210;-65
2023/01/29 09:29:46;;;;;;;15.80;12.67;;;;;;;;;;5011636;28;20210;-65
2023/01/29 09:32:12;;;;;;;16.17;12.30;;;;;;;;;;5011589;28;20554;-65
2023/01/29 09:34:37;;;;;;;16.00;12.60;;;;;;;;;;5012389;28;20577;-65
2023/01/29 09:37:02;;;;;;;16.00;12.67;;;;;;;;;;5010899;28;20568;-64
2023/01/29 09:39:28;;;;;;;16.90;12.63;;;;;;;;;;5012244;28;20610;-65
2023/01/29 09:41:54;;;;;;;15.70;12.93;;;;;;;;;;5027463;28;20216;-67
2023/01/29 09:44:23;;;;;;;17.20;13.10;;;;;;;;;;5030567;28;20220;-66
2023/01/29 09:46:50;;;;;;;15.77;13.07;;;;;;;;;;5014029;28;20204;-65
2023/01/29 09:49:19;;;;;;;16.10;12.80;;;;;;;;;;5009720;28;20236;-64
2023/01/29 09:51:45;;;;;;;16.80;13.33;;;;;;;;;;4999211;28;20243;-65
2023/01/29 09:54:11;;;;;;;16.00;12.60;;;;;;;;;;4978343;28;20224;-65
2023/01/29 09:56:36;;;;;;;15.77;12.50;;;;;;;;;;5001451;28;20220;-65
2023/01/29 09:59:01;;;;;;;15.03;12.03;;;;;;;;;;5012312;28;20630;-65
2023/01/29 10:01:31;;;;;;;15.90;12.50;;;;;;;;;;5002589;28;20320;-65
2023/01/29 10:04:12;;;;;;;15.17;11.97;;;;;;;;;;4977657;28;20218;-65
2023/01/29 10:06:47;;;;;;;14.53;12.20;;;;;;;;;;5015365;28;20212;-66
2023/01/29 10:09:14;;;;;;;15.53;12.43;;;;;;;;;;5007000;28;20325;-65
2023/01/29 10:11:45;;;;;;;16.17;12.93;;;;;;;;;;5014099;28;20221;-66
2023/01/29 10:14:23;;;;;;;14.90;11.60;;;;;;;;;;4999002;28;20244;-66
2023/01/29 10:17:02;;;;;;;15.03;12.00;;;;;;;;;;4994626;28;20229;-66
2023/01/29 10:19:35;;;;;;;14.90;12.20;;;;;;;;;;5013538;28;20204;-65
2023/01/29 10:22:00;;;;;;;17.23;13.30;;;;;;;;;;5013698;28;20208;-65
2023/01/29 10:24:26;;;;;;;14.37;11.70;;;;;;;;;;5015393;28;20220;-66
2023/01/29 10:26:51;;;;;;;13.90;11.83;;;;;;;;;;5014627;28;20224;-65
2023/01/29 10:29:17;;;;;;;14.97;12.33;;;;;;;;;;5013824;28;20216;-65
2023/01/29 10:31:42;;;;;;;14.70;11.63;;;;;;;;;;5023173;28;20732;-64
2023/01/29 10:34:13;;;;;;;14.53;11.63;;;;;;;;;;5005082;28;20653;-64
2023/01/29 10:36:38;;;;;;;16.00;12.03;;;;;;;;;;5016538;28;20749;-64
2023/01/29 10:39:03;;;;;;;15.37;12.10;;;;;;;;;;5001716;28;20331;-65
2023/01/29 10:41:55;;;;;;;13.17;10.30;;;;;;;;;;5014995;28;20223;-64
2023/01/29 10:44:26;;;;;;;15.90;11.77;;;;;;;;;;5028002;28;20220;-65
2023/01/29 10:47:01;;;;;;;14.40;11.60;;;;;;;;;;5027354;28;20298;-64
2023/01/29 10:49:37;;;;;;;13.53;10.90;;;;;;;;;;5026069;28;20881;-64
2023/01/29 10:52:15;;;;;;;15.47;11.13;;;;;;;;;;5011413;28;20846;-64
2023/01/29 10:54:42;;;;;;;12.90;10.93;;;;;;;;;;5006937;28;20216;-64
2023/01/29 10:57:11;;;;;;;13.10;10.83;;;;;;;;;;4999029;28;20247;-64
2023/01/29 10:59:36;;;;;;;12.70;10.53;;;;;;;;;;5015797;28;20629;-64
2023/01/29 11:02:02;;;;;;;13.63;10.70;;;;;;;;;;4995463;28;20208;-64
2023/01/29 11:04:27;;;;;;;16.97;10.87;;;;;;;;;;5007347;28;20748;-64
2023/01/29 11:06:53;;;;;;;13.23;10.37;;;;;;;;;;5029341;28;20255;-64
2023/01/29 11:09:25;;;;;;;12.63;10.43;;;;;;;;;;5012685;28;20235;-64
2023/01/29 11:11:53;;;;;;;14.10;10.53;;;;;;;;;;5006370;28;20216;-64
2023/01/29 11:14:25;;;;;;;12.93;10.30;;;;;;;;;;4988540;28;20268;-64
2023/01/29 11:16:51;;;;;;;14.33;10.37;;;;;;;;;;4988658;28;20236;-64
2023/01/29 11:19:16;;;;;;;12.27;9.87;;;;;;;;;;4981930;28;20210;-64
2023/01/29 11:21:51;;;;;;;12.90;10.60;;;;;;;;;;4980637;28;20465;-65
2023/01/29 11:24:17;;;;;;;12.40;9.97;;;;;;;;;;4999331;28;20235;-65
2023/01/29 11:26:43;;;;;;;13.57;10.07;;;;;;;;;;5012353;28;20566;-65
2023/01/29 11:29:27;;;;;;;12.93;10.50;;;;;;;;;;5013078;28;20223;-65
2023/01/29 11:31:52;;;;;;;13.90;10.47;;;;;;;;;;5013072;28;20736;-65
2023/01/29 11:34:21;;;;;;;12.37;9.87;;;;;;;;;;5013666;28;20220;-65
2023/01/29 11:36:55;;;;;;;13.47;10.53;;;;;;;;;;5013433;28;20224;-65
2023/01/29 11:39:21;;;;;;;12.60;10.13;;;;;;;;;;5013349;28;20308;-65
2023/01/29 11:41:47;;;;;;;12.23;10.73;;;;;;;;;;5002220;28;20636;-65
2023/01/29 11:44:17;;;;;;;13.53;10.63;;;;;;;;;;4992988;28;20245;-65
2023/01/29 11:46:42;;;;;;;12.50;10.10;;;;;;;;;;4994023;28;20255;-65
2023/01/29 11:49:11;;;;;;;13.87;10.90;;;;;;;;;;4993471;28;20217;-65
2023/01/29 11:51:37;;;;;;;12.13;10.23;;;;;;;;;;4994476;28;20216;-65
2023/01/29 11:54:02;;;;;;;13.17;10.70;;;;;;;;;;4995520;28;20351;-64
2023/01/29 11:56:31;;;;;;;12.70;10.20;;;;;;;;;;5012778;28;20216;-65
2023/01/29 11:58:56;;;;;;;13.37;10.20;;;;;;;;;;5013183;28;20587;-65
2023/01/29 12:01:29;;;;;;;12.60;10.53;;;;;;;;;;5012980;28;20702;-65
2023/01/29 12:03:54;;;;;;;14.17;10.60;;;;;;;;;;4995173;28;20215;-65
2023/01/29 12:06:22;;;;;;;11.87;10.13;;;;;;;;;;5007203;28;20218;-65
2023/01/29 12:08:52;;;;;;;12.47;10.63;;;;;;;;;;4976260;28;20707;-65
2023/01/29 12:11:29;;;;;;;13.63;10.53;;;;;;;;;;4975377;28;20611;-65
2023/01/29 12:13:58;;;;;;;11.77;10.27;;;;;;;;;;4998833;28;20295;-65
2023/01/29 12:16:28;;;;;;;12.60;10.67;;;;;;;;;;5012448;28;20216;-65
2023/01/29 12:18:55;;;;;;;11.80;9.93;;;;;;;;;;5011024;28;20678;-65
2023/01/29 12:21:23;;;;;;;12.80;10.73;;;;;;;;;;5011732;28;20271;-65
2023/01/29 12:24:02;;;;;;;13.47;10.80;;;;;;;;;;5009046;28;20266;-65
2023/01/29 12:26:36;;;;;;;13.33;10.63;;;;;;;;;;4991348;28;20679;-65
2023/01/29 12:29:08;;;;;;;13.40;10.90;;;;;;;;;;4995798;28;20224;-65
2023/01/29 12:31:42;;;;;;;13.07;10.93;;;;;;;;;;4997835;28;20217;-65
2023/01/29 12:34:16;;;;;;;14.00;11.50;;;;;;;;;;4992854;28;20240;-65
2023/01/29 12:36:41;;;;;;;12.20;10.77;;;;;;;;;;5008961;28;20217;-65
2023/01/29 12:39:08;;;;;;;14.00;10.80;;;;;;;;;;5011918;28;20213;-65
2023/01/29 12:41:35;;;;;;;14.37;11.30;;;;;;;;;;5011834;28;20733;-65
2023/01/29 12:44:04;;;;;;;13.40;11.20;;;;;;;;;;5012610;28;20281;-64
2023/01/29 12:46:32;;;;;;;12.80;11.50;;;;;;;;;;5012048;28;20667;-65
2023/01/29 12:48:58;;;;;;;14.47;12.33;;;;;;;;;;5011646;28;20224;-66
2023/01/29 12:51:24;;;;;;;14.57;12.00;;;;;;;;;;4995231;28;20213;-65
2023/01/29 12:53:51;;;;;;;13.50;11.53;;;;;;;;;;4991419;28;20220;-65
2023/01/29 12:56:21;;;;;;;13.67;11.87;;;;;;;;;;4991600;28;20217;-65
2023/01/29 12:58:48;;;;;;;14.00;12.10;;;;;;;;;;4992005;28;20210;-65
2023/01/29 13:01:16;;;;;;;15.13;12.70;;;;;;;;;;4990283;28;20205;-65
2023/01/29 13:03:47;;;;;;;15.77;13.40;;;;;;;;;;4993303;28;20201;-65
2023/01/29 13:06:14;;;;;;;16.30;13.17;;;;;;;;;;4997585;28;20702;-65
2023/01/29 13:08:40;;;;;;;16.80;12.60;;;;;;;;;;5010416;28;20216;-65
2023/01/29 13:11:10;;;;;;;15.37;12.67;;;;;;;;;;5012491;28;20601;-65
2023/01/29 13:13:38;;;;;;;17.50;13.27;;;;;;;;;;5008035;28;20296;-65
2023/01/29 13:16:04;;;;;;;17.60;13.70;;;;;;;;;;4991310;28;20220;-65
2023/01/29 13:18:32;;;;;;;17.10;13.17;;;;;;;;;;4991518;28;20221;-65
2023/01/29 13:20:57;;;;;;;16.00;12.97;;;;;;;;;;4990972;28;20270;-66
2023/01/29 13:23:27;;;;;;;14.93;13.30;;;;;;;;;;4991201;28;20287;-65
2023/01/29 13:25:52;;;;;;;16.33;14.17;;;;;;;;;;4993989;28;20338;-65
2023/01/29 13:28:19;;;;;;;16.27;13.40;;;;;;;;;;4995690;28;20298;-65
2023/01/29 13:30:44;;;;;;;15.63;13.73;;;;;;;;;;4995766;28;20284;-65
2023/01/29 13:33:17;;;;;;;15.87;13.60;;;;;;;;;;4996616;28;20783;-65
2023/01/29 13:35:43;;;;;;;16.27;13.47;;;;;;;;;;4995047;28;20201;-65
2023/01/29 13:38:22;;;;;;;16.30;13.10;;;;;;;;;;4995008;28;20742;-65
2023/01/29 13:40:48;;;;;;;15.17;13.40;;;;;;;;;;4979165;28;20235;-65
2023/01/29 13:43:17;;;;;;;17.57;13.43;;;;;;;;;;4995555;28;20212;-66
2023/01/29 13:45:42;;;;;;;16.43;14.73;;;;;;;;;;4995494;28;20213;-65
2023/01/29 13:48:09;;;;;;;16.70;14.10;;;;;;;;;;4996325;28;20296;-65
2023/01/29 13:50:36;;;;;;;18.87;14.63;;;;;;;;;;5003592;28;20232;-65
2023/01/29 13:53:02;;;;;;;19.17;15.47;;;;;;;;;;5015800;28;20220;-64
2023/01/29 13:55:30;;;;;;;18.70;15.50;;;;;;;;;;5016001;28;20283;-65
2023/01/29 13:57:57;;;;;;;17.50;14.70;;;;;;;;;;5015365;28;20278;-65
2023/01/29 14:00:42;;;;;;;17.83;14.73;;;;;;;;;;5015695;28;20213;-65
2023/01/29 14:03:10;;;;;;;17.83;15.27;;;;;;;;;;5014714;28;20734;-65
2023/01/29 14:05:43;;;;;;;17.93;15.47;;;;;;;;;;5015752;28;20216;-65
2023/01/29 14:08:08;;;;;;;18.07;16.07;;;;;;;;;;4999864;28;20675;-65
2023/01/29 14:10:34;;;;;;;19.53;16.77;;;;;;;;;;5015227;28;20215;-65
2023/01/29 14:13:00;;;;;;;20.00;15.90;;;;;;;;;;5015864;28;20259;-65
2023/01/29 14:15:26;;;;;;;21.17;16.13;;;;;;;;;;5032505;28;20208;-65
2023/01/29 14:17:59;;;;;;;20.87;18.20;;;;;;;;;;5034639;28;20220;-65
2023/01/29 14:20:31;;;;;;;21.50;17.33;;;;;;;;;;5034867;28;20215;-65
2023/01/29 14:22:58;;;;;;;18.20;15.83;;;;;;;;;;5035300;28;20216;-65
2023/01/29 14:25:27;;;;;;;19.70;16.17;;;;;;;;;;5034028;28;20294;-65
2023/01/29 14:27:52;;;;;;;17.60;15.70;;;;;;;;;;5035225;28;20227;-65
2023/01/29 14:30:18;;;;;;;19.47;16.83;;;;;;;;;;5033161;28;20580;-65
2023/01/29 14:32:46;;;;;;;20.33;16.03;;;;;;;;;;5033266;28;20222;-65
2023/01/29 14:35:19;;;;;;;18.10;15.50;;;;;;;;;;5033615;28;20250;-65
2023/01/29 14:37:46;;;;;;;18.17;15.20;;;;;;;;;;5033007;28;20216;-65
2023/01/29 14:40:11;;;;;;;19.40;15.93;;;;;;;;;;5033675;28;20231;-65
2023/01/29 14:42:38;;;;;;;21.87;16.37;;;;;;;;;;5034939;28;20674;-66
2023/01/29 14:45:21;;;;;;;19.10;15.43;;;;;;;;;;5033498;28;20547;-65
2023/01/29 14:47:47;;;;;;;19.50;15.97;;;;;;;;;;5034997;28;20211;-66